Airfield :
LOGIN :

Register | Disclaimer

   EN    FR    IT 

 










Legend :    VFR   Marginal VFR   IFR   Intensive IFR   Very Intensive IFR
Visi :
Ceiling :
>= 8 km
>= 3000ft
5 to 8 km
1000 to 3000 ft
1500m to 5 km
500 to 1000 ft
800 to 1500m
200 to 500 ft
< 800m
< 200 ft
Symbols :   Thunderstorms  Fog  Heavy snow  Heavy precipitations  Wind > 20 kt
SIGMETs :     Misc.  Thunderstorms  Icing  Turbulence  Mountain Waves  Volcanic Ashes






- Airport Elevation : 81 ft
- IATA code : SCS


EGPM - Scatsta

CURRENT METAR :
  • 191520Z AUTO 23026KT 9999 OVC018/// 08/06 Q1030

EXPIRED METARs :
  • 191450Z AUTO 23023G33KT 9999 OVC017/// 08/06 Q1030
  • 191420Z AUTO 23023KT 9999 OVC017/// 08/05 Q1030
  • 191350Z AUTO 22020KT 9999 BKN020/// OVC036/// 07/05 Q1030
  • 191320Z AUTO 21018KT 9999 BKN018/// OVC033/// 07/05 Q1030
  • 191250Z AUTO 23022KT 9999 BKN017/// 08/05 Q1031

TAF TAF EGPM
Valid from the 19 at 15:00 until the 20 at 00:00 UTC


191356Z 1915/1924 22018KT 9999 SCT030
TEMPO 1915/1924 23025G35KT 6000 -RA BKN012
PROB30
TEMPO 1918/1924 22030G45KT 4000 RADZ BKN006



MET'MAP, your aeronautical weather chart ! - Copyright ORBIFLY December 2007 - Disclaimer

ORBIFLY MET'MAP TEAM :

Programming & Development : Alexandra Zaïnal
Concept & original design : Baudouin d'Aumeries
Assistance for programming : Marc-Olivier Méhu
Technical & hardware support : Manuel Goepfert

Contact : metmap@orbifly.com




SOURCES & CREDITS :

   NOAA